createdAt,value
2022-07-27T00:00:50.636Z,99869.63
2022-07-27T00:03:17.824Z,99863.66
2022-07-27T00:05:44.788Z,99864.19
2022-07-27T00:08:11.468Z,99865.50
2022-07-27T00:10:38.524Z,99867.06
2022-07-27T00:13:06.276Z,99871.41
2022-07-27T00:15:36.124Z,99874.34
2022-07-27T00:18:03.852Z,99863.16
2022-07-27T00:20:32.067Z,99863.16
2022-07-27T00:22:59.495Z,99862.59
2022-07-27T00:25:27.637Z,99864.72
2022-07-27T00:27:55.187Z,99871.22
2022-07-27T00:30:21.934Z,99859.78
2022-07-27T00:32:48.962Z,99863.63
2022-07-27T00:35:15.854Z,99856.44
2022-07-27T00:37:42.669Z,99871.63
2022-07-27T00:40:10.448Z,99877.53
2022-07-27T00:42:37.182Z,99872.06
2022-07-27T00:45:05.274Z,99872.06
2022-07-27T00:47:32.583Z,99860.06
2022-07-27T00:49:59.640Z,99863.63
2022-07-27T00:52:28.564Z,99859.56
2022-07-27T00:54:55.855Z,99864.37
2022-07-27T00:57:23.104Z,99860.06
2022-07-27T00:59:49.803Z,99860.56
2022-07-27T01:02:19.322Z,99862.19
2022-07-27T01:04:47.388Z,99861.63
2022-07-27T01:07:15.144Z,99858.75
2022-07-27T01:09:58.211Z,99872.94
2022-07-27T01:12:32.200Z,99870.47
2022-07-27T01:15:00.468Z,99879.37
2022-07-27T01:17:30.856Z,99868.41
2022-07-27T01:19:59.053Z,99877.16
2022-07-27T01:22:26.317Z,99872.81
2022-07-27T01:24:53.205Z,99870.34
2022-07-27T01:27:19.977Z,99866.78
2022-07-27T01:29:47.465Z,99860.50
2022-07-27T01:32:14.355Z,99858.59
2022-07-27T01:34:41.069Z,99863.19
2022-07-27T01:37:08.136Z,99866.16
2022-07-27T01:39:34.910Z,99862.28
2022-07-27T01:42:01.936Z,99866.88
2022-07-27T01:44:28.944Z,99860.28
2022-07-27T01:46:55.642Z,99856.50
2022-07-27T01:49:22.471Z,99868.12
2022-07-27T01:51:49.813Z,99861.09
2022-07-27T01:54:16.525Z,99862.38
2022-07-27T01:56:43.574Z,99863.13
2022-07-27T01:59:16.914Z,99851.22
2022-07-27T02:01:45.201Z,99854.22
2022-07-27T02:04:12.303Z,99859.31
2022-07-27T02:06:39.459Z,99855.78
2022-07-27T02:09:06.677Z,99859.78
2022-07-27T02:11:52.260Z,99861.41
2022-07-27T02:14:21.250Z,99860.59
2022-07-27T02:16:50.727Z,99865.75
2022-07-27T02:19:18.275Z,99866.81
2022-07-27T02:21:45.268Z,99869.50
2022-07-27T02:24:12.195Z,99867.66
2022-07-27T02:26:38.830Z,99864.34
2022-07-27T02:29:05.636Z,99853.16
2022-07-27T02:31:32.887Z,99861.41
2022-07-27T02:34:00.562Z,99856.84
2022-07-27T02:36:29.314Z,99858.97
2022-07-27T02:38:57.446Z,99859.62
2022-07-27T02:41:24.444Z,99857.16
2022-07-27T02:43:51.208Z,99869.66
2022-07-27T02:46:18.380Z,99863.53
2022-07-27T02:48:45.293Z,99861.97
2022-07-27T02:51:12.418Z,99874.97
2022-07-27T02:53:39.324Z,99866.78
2022-07-27T02:56:06.373Z,99875.06
2022-07-27T02:58:33.169Z,99864.37
2022-07-27T03:01:00.078Z,99878.56
2022-07-27T03:03:36.116Z,99870.75
2022-07-27T03:06:05.917Z,99866.16
2022-07-27T03:08:32.739Z,99880.16
2022-07-27T03:10:59.403Z,99873.84
2022-07-27T03:13:26.758Z,99867.72
2022-07-27T03:15:53.564Z,99879.87
2022-07-27T03:18:21.180Z,99881.44
2022-07-27T03:20:48.220Z,99888.41
2022-07-27T03:23:15.233Z,99881.53
2022-07-27T03:25:41.864Z,99884.50
2022-07-27T03:28:08.894Z,99887.22
2022-07-27T03:30:35.737Z,99884.03
2022-07-27T03:33:02.441Z,99883.88
2022-07-27T03:35:29.350Z,99875.97
2022-07-27T03:37:56.360Z,99872.50
2022-07-27T03:40:23.016Z,99882.94
2022-07-27T03:42:50.194Z,99885.38
2022-07-27T03:45:16.851Z,99886.75
2022-07-27T03:47:43.554Z,99884.59
2022-07-27T03:50:10.673Z,99885.19
2022-07-27T03:52:37.397Z,99888.69
2022-07-27T03:55:04.307Z,99888.22
2022-07-27T03:57:31.420Z,99878.28
2022-07-27T03:59:58.109Z,99873.72
2022-07-27T04:02:24.869Z,99875.34
2022-07-27T04:04:51.863Z,99875.66
2022-07-27T04:07:18.592Z,99877.66
2022-07-27T04:09:45.356Z,99877.81
2022-07-27T04:12:14.551Z,99879.44
2022-07-27T04:14:44.178Z,99871.84
2022-07-27T04:17:10.935Z,99877.19
2022-07-27T04:19:38.051Z,99876.09
2022-07-27T04:22:04.693Z,99875.34
2022-07-27T04:24:31.374Z,99885.97
2022-07-27T04:26:58.323Z,99878.78
2022-07-27T04:29:25.165Z,99877.56
2022-07-27T04:31:52.212Z,99878.13
2022-07-27T04:34:20.773Z,99885.38
2022-07-27T04:36:47.434Z,99877.63
2022-07-27T04:39:14.671Z,99884.50
2022-07-27T04:41:42.113Z,99886.59
2022-07-27T04:44:08.759Z,99891.66
2022-07-27T04:46:35.473Z,99891.78
2022-07-27T04:49:02.575Z,99890.03
2022-07-27T04:51:34.352Z,99885.03
2022-07-27T04:54:02.106Z,99891.66
2022-07-27T04:56:29.364Z,99889.59
2022-07-27T04:58:56.412Z,99901.94
2022-07-27T05:01:23.416Z,99903.88
2022-07-27T05:03:50.771Z,99899.06
2022-07-27T05:06:17.865Z,99905.09
2022-07-27T05:08:44.585Z,99893.97
2022-07-27T05:11:11.867Z,99902.44
2022-07-27T05:13:40.550Z,99891.59
2022-07-27T05:16:11.904Z,99907.38
2022-07-27T05:18:39.823Z,99907.59
2022-07-27T05:21:07.811Z,99901.59
2022-07-27T05:23:34.705Z,99910.31
2022-07-27T05:26:01.941Z,99912.16
2022-07-27T05:28:29.622Z,99897.25
2022-07-27T05:30:56.650Z,99917.63
2022-07-27T05:33:23.756Z,99910.53
2022-07-27T05:35:50.852Z,99908.03
2022-07-27T05:50:00.526Z,99908.69
2022-07-27T05:52:27.513Z,99908.69
2022-07-27T05:54:54.415Z,99902.59
2022-07-27T05:57:21.308Z,99919.38
2022-07-27T05:59:48.540Z,99921.00
2022-07-27T06:02:15.152Z,99917.97
2022-07-27T06:04:42.051Z,99927.13
2022-07-27T06:07:27.448Z,99917.56
2022-07-27T06:09:54.397Z,99917.37
2022-07-27T06:12:21.101Z,99916.22
2022-07-27T06:14:56.883Z,99919.69
2022-07-27T06:17:23.654Z,99919.84
2022-07-27T06:19:50.447Z,99922.56
2022-07-27T06:22:18.573Z,99922.56
2022-07-27T06:24:45.199Z,99925.22
2022-07-27T06:27:11.835Z,99918.06
2022-07-27T06:29:38.740Z,99920.19
2022-07-27T06:32:05.935Z,99916.13
2022-07-27T06:34:38.243Z,99918.88
2022-07-27T06:37:09.258Z,99908.25
2022-07-27T06:39:35.968Z,99915.25
2022-07-27T06:42:03.554Z,99927.22
2022-07-27T06:44:30.450Z,99924.47
2022-07-27T06:46:57.152Z,99916.00
2022-07-27T06:49:23.861Z,99912.22
2022-07-27T06:51:50.852Z,99911.31
2022-07-27T06:54:17.831Z,99919.66
2022-07-27T06:56:44.762Z,99916.13
2022-07-27T06:59:11.973Z,99925.59
2022-07-27T07:01:38.900Z,99924.78
2022-07-27T07:04:05.640Z,99917.91
2022-07-27T07:06:32.928Z,99925.81
2022-07-27T07:09:00.549Z,99922.78
2022-07-27T07:11:27.406Z,99924.13
2022-07-27T07:13:54.346Z,99927.88
2022-07-27T07:16:21.394Z,99922.31
2022-07-27T07:18:52.237Z,99917.78
2022-07-27T07:21:19.566Z,99922.59
2022-07-27T07:23:46.396Z,99923.00
2022-07-27T07:26:13.087Z,99920.31
2022-07-27T07:28:40.230Z,99913.81
2022-07-27T07:31:07.098Z,99919.75
2022-07-27T07:33:33.800Z,99911.13
2022-07-27T07:36:12.916Z,99921.06
2022-07-27T07:38:42.576Z,99919.97
2022-07-27T07:41:10.026Z,99919.13
2022-07-27T07:43:38.783Z,99918.75
2022-07-27T07:46:06.130Z,99918.13
2022-07-27T07:48:33.143Z,99918.63
2022-07-27T07:50:59.901Z,99923.50
2022-07-27T07:53:27.109Z,99915.19
2022-07-27T07:55:56.644Z,99922.19
2022-07-27T07:58:23.429Z,99917.09
2022-07-27T08:00:50.252Z,99919.13
2022-07-27T08:03:18.549Z,99917.31
2022-07-27T08:05:45.266Z,99928.88
2022-07-27T08:08:12.143Z,99918.72
2022-07-27T08:10:39.196Z,99909.41
2022-07-27T08:13:05.899Z,99914.25
2022-07-27T08:15:35.768Z,99924.28
2022-07-27T08:18:06.912Z,99919.13
2022-07-27T08:20:34.569Z,99922.28
2022-07-27T08:23:02.200Z,99916.25
2022-07-27T08:25:29.649Z,99921.97
2022-07-27T08:27:56.736Z,99924.09
2022-07-27T08:30:24.408Z,99922.03
2022-07-27T08:32:58.574Z,99918.41
2022-07-27T08:35:25.934Z,99919.41
2022-07-27T08:37:53.293Z,99916.87
2022-07-27T08:43:08.882Z,99906.59
2022-07-27T08:45:37.259Z,99905.06
2022-07-27T08:48:04.926Z,99904.06
2022-07-27T08:50:34.675Z,99904.44
2022-07-27T08:53:11.112Z,99910.16
2022-07-27T08:55:40.837Z,99912.78
2022-07-27T08:58:08.551Z,99891.00
2022-07-27T09:00:38.262Z,99901.50
2022-07-27T09:03:05.791Z,99899.59
2022-07-27T09:05:36.136Z,99909.03
2022-07-27T09:08:16.236Z,99907.25
2022-07-27T09:10:44.099Z,99904.09
2022-07-27T09:13:21.567Z,99913.19
2022-07-27T09:18:39.403Z,99914.12
2022-07-27T09:21:17.521Z,99902.84
2022-07-27T09:24:18.042Z,99918.69
2022-07-27T09:27:03.749Z,99913.59
2022-07-27T09:29:35.005Z,99913.78
2022-07-27T09:32:14.174Z,99902.50
2022-07-27T09:34:41.002Z,99896.91
2022-07-27T09:37:08.512Z,99892.41
2022-07-27T09:39:35.172Z,99893.56
2022-07-27T09:42:02.840Z,99881.94
2022-07-27T09:44:43.787Z,99889.22
2022-07-27T09:47:20.821Z,99910.56
2022-07-27T09:49:47.948Z,99909.78
2022-07-27T09:52:30.396Z,99894.72
2022-07-27T09:55:05.886Z,99903.78
2022-07-27T09:57:56.542Z,99924.50
2022-07-27T10:00:25.756Z,99914.16
2022-07-27T10:02:53.887Z,99920.72
2022-07-27T10:05:24.277Z,99914.34
2022-07-27T10:07:54.709Z,99904.34
2022-07-27T10:10:23.061Z,99907.41
2022-07-27T10:12:54.668Z,99920.56
2022-07-27T10:15:24.053Z,99893.44
2022-07-27T10:18:06.823Z,99912.94
2022-07-27T10:20:38.338Z,99915.69
2022-07-27T10:23:05.237Z,99904.81
2022-07-27T10:25:38.008Z,99895.13
2022-07-27T10:28:16.461Z,99914.47
2022-07-27T10:30:44.755Z,99910.78
2022-07-27T10:33:37.943Z,99912.66
2022-07-27T10:36:05.200Z,99910.41
2022-07-27T10:38:47.189Z,99904.06
2022-07-27T10:41:28.877Z,99904.19
2022-07-27T10:44:14.933Z,99914.53
2022-07-27T10:46:52.640Z,99914.72
2022-07-27T10:49:22.282Z,99915.41
2022-07-27T10:51:51.186Z,99908.78
2022-07-27T10:54:22.501Z,99904.97
2022-07-27T10:56:51.332Z,99907.63
2022-07-27T11:02:41.455Z,99904.94
2022-07-27T11:05:32.773Z,99906.28
2022-07-27T11:08:36.271Z,99904.69
2022-07-27T11:10:48.077Z,99908.22
2022-07-27T11:13:18.475Z,99911.97
2022-07-27T11:16:22.545Z,99899.69
2022-07-27T11:19:14.121Z,99911.50
2022-07-27T11:21:41.459Z,99904.47
2022-07-27T11:24:15.075Z,99891.34
2022-07-27T11:26:44.911Z,99911.25
2022-07-27T11:29:14.307Z,99911.09
2022-07-27T11:31:59.192Z,99909.31
2022-07-27T11:34:36.249Z,99911.91
2022-07-27T11:37:11.855Z,99913.50
2022-07-27T11:42:37.209Z,99911.56
2022-07-27T11:45:05.712Z,99920.78
2022-07-27T11:47:34.131Z,99920.78
2022-07-27T11:50:07.309Z,99913.97
2022-07-27T11:52:34.703Z,99925.13
2022-07-27T11:55:01.620Z,99912.16
2022-07-27T11:57:33.130Z,99918.88
2022-07-27T12:00:00.277Z,99926.13
2022-07-27T12:02:27.485Z,99920.25
2022-07-27T12:05:00.496Z,99933.78
2022-07-27T12:07:31.669Z,99946.28
2022-07-27T12:10:02.101Z,99946.00
2022-07-27T12:12:30.904Z,99946.22
2022-07-27T12:15:16.592Z,99954.25
2022-07-27T12:17:57.243Z,99952.81
2022-07-27T12:20:33.349Z,99961.47
2022-07-27T12:23:06.533Z,99960.91
2022-07-27T12:25:34.737Z,99970.22
2022-07-27T12:28:12.613Z,99962.28
2022-07-27T12:30:51.620Z,99969.41
2022-07-27T12:33:29.925Z,99971.69
2022-07-27T12:35:58.238Z,99969.72
2022-07-27T12:38:36.303Z,99962.19
2022-07-27T12:41:03.171Z,99959.28
2022-07-27T12:43:30.298Z,99957.63
2022-07-27T12:45:57.641Z,99953.09
2022-07-27T12:48:26.999Z,99936.66
2022-07-27T12:50:59.974Z,99972.88
2022-07-27T12:53:26.682Z,99955.47
2022-07-27T12:55:56.539Z,99954.50
2022-07-27T12:58:23.814Z,99963.94
2022-07-27T13:00:50.549Z,99957.97
2022-07-27T13:03:17.297Z,99953.16
2022-07-27T13:05:44.651Z,99944.47
2022-07-27T13:08:11.511Z,99950.50
2022-07-27T13:10:39.519Z,99946.13
2022-07-27T13:13:08.592Z,99962.44
2022-07-27T13:15:35.705Z,99964.03
2022-07-27T13:18:02.533Z,99955.87
2022-07-27T13:20:29.809Z,99955.84
2022-07-27T13:22:56.618Z,99959.94
2022-07-27T13:25:23.387Z,99956.69
2022-07-27T13:27:50.574Z,99959.72
2022-07-27T13:30:18.564Z,99958.41
2022-07-27T13:32:46.899Z,99964.38
2022-07-27T13:35:14.965Z,99963.78
2022-07-27T13:37:41.993Z,99963.47
2022-07-27T13:40:09.967Z,99954.84
2022-07-27T13:42:37.533Z,99971.37
2022-07-27T13:45:11.170Z,99972.56
2022-07-27T13:47:40.983Z,99983.94
2022-07-27T13:50:17.067Z,99979.06
2022-07-27T13:52:47.304Z,99978.09
2022-07-27T13:55:15.732Z,99984.63
2022-07-27T13:57:42.928Z,99984.41
2022-07-27T14:00:10.677Z,99979.81
2022-07-27T14:02:37.912Z,99990.75
2022-07-27T14:05:06.092Z,99993.84
2022-07-27T14:07:33.366Z,99996.88
2022-07-27T14:10:19.088Z,99988.13
2022-07-27T14:12:45.990Z,99964.69
2022-07-27T14:15:13.132Z,100004.56
2022-07-27T14:17:39.812Z,100005.66
2022-07-27T14:20:07.414Z,100008.69
2022-07-27T14:22:34.626Z,100015.00
2022-07-27T14:25:01.310Z,100000.59
2022-07-27T14:27:36.270Z,100003.69
2022-07-27T14:30:06.943Z,100009.34
2022-07-27T14:32:34.554Z,100013.13
2022-07-27T14:35:01.496Z,100010.69
2022-07-27T14:37:28.948Z,100007.69
2022-07-27T14:39:55.740Z,99998.16
2022-07-27T14:42:24.077Z,100007.41
2022-07-27T14:44:51.272Z,100012.91
2022-07-27T14:47:18.709Z,100001.84
2022-07-27T14:49:45.589Z,100010.84
2022-07-27T14:52:15.648Z,100016.87
2022-07-27T14:54:44.023Z,100012.03
2022-07-27T14:57:11.034Z,100012.09
2022-07-27T14:59:38.785Z,100011.28
2022-07-27T15:02:06.078Z,100014.06
2022-07-27T15:04:33.183Z,100004.03
2022-07-27T15:07:00.795Z,100013.03
2022-07-27T15:09:30.291Z,100013.91
2022-07-27T15:11:58.021Z,100009.84
2022-07-27T15:14:26.113Z,100007.97
2022-07-27T15:16:54.545Z,100014.56
2022-07-27T15:19:21.677Z,100002.06
2022-07-27T15:21:48.800Z,99996.94
2022-07-27T15:24:16.003Z,99995.06
2022-07-27T15:26:42.919Z,99995.63
2022-07-27T15:29:14.909Z,99990.75
2022-07-27T15:31:42.966Z,99995.13
2022-07-27T15:34:10.124Z,99999.50
2022-07-27T15:36:43.723Z,100000.06
2022-07-27T15:39:14.355Z,100006.59
2022-07-27T15:41:41.311Z,99994.06
2022-07-27T15:44:08.335Z,99984.31
2022-07-27T15:46:35.511Z,99988.09
2022-07-27T15:49:02.476Z,99996.00
2022-07-27T15:51:29.493Z,99993.56
2022-07-27T15:53:57.246Z,99981.34
2022-07-27T15:56:25.144Z,99984.34
2022-07-27T15:58:51.992Z,99982.72
2022-07-27T16:01:20.821Z,99997.38
2022-07-27T16:03:49.885Z,99994.16
2022-07-27T16:06:19.052Z,99988.72
2022-07-27T16:08:46.350Z,99999.59
2022-07-27T16:11:13.412Z,99998.75
2022-07-27T16:13:40.203Z,100006.41
2022-07-27T16:16:22.290Z,100004.47
2022-07-27T16:18:51.235Z,99998.22
2022-07-27T16:21:18.867Z,100001.50
2022-07-27T16:23:45.750Z,100012.69
2022-07-27T16:26:12.800Z,100005.88
2022-07-27T16:28:43.021Z,99995.31
2022-07-27T16:31:13.703Z,100012.12
2022-07-27T16:33:44.092Z,100018.91
2022-07-27T16:36:11.561Z,100009.97
2022-07-27T16:38:49.927Z,100009.41
2022-07-27T16:41:19.902Z,100013.75
2022-07-27T16:43:46.926Z,100001.81
2022-07-27T16:46:14.487Z,99998.03
2022-07-27T16:48:43.219Z,100015.97
2022-07-27T16:51:12.590Z,100007.78
2022-07-27T16:53:41.239Z,100016.50
2022-07-27T16:56:09.208Z,100021.97
2022-07-27T16:58:36.200Z,100025.75
2022-07-27T17:01:03.505Z,100024.41
2022-07-27T17:03:30.787Z,100024.69
2022-07-27T17:06:00.757Z,100007.81
2022-07-27T17:08:30.626Z,100016.00
2022-07-27T17:10:57.335Z,100021.19
2022-07-27T17:13:24.035Z,100005.69
2022-07-27T17:16:04.904Z,100020.63
2022-07-27T17:18:38.905Z,100019.25
2022-07-27T17:21:07.451Z,100022.56
2022-07-27T17:23:38.092Z,100024.19
2022-07-27T17:26:09.290Z,100033.47
2022-07-27T17:28:39.313Z,100039.19
2022-07-27T17:31:08.941Z,100038.09
2022-07-27T17:33:36.118Z,100042.44
2022-07-27T17:36:02.970Z,100031.03
2022-07-27T17:38:29.739Z,100034.31
2022-07-27T17:40:56.984Z,100033.47
2022-07-27T17:43:23.742Z,100044.91
2022-07-27T17:45:50.755Z,100038.38
2022-07-27T17:48:17.998Z,100037.56
2022-07-27T17:50:44.696Z,100050.06
2022-07-27T17:53:11.335Z,100044.37
2022-07-27T17:55:38.513Z,100049.25
2022-07-27T17:58:05.190Z,100044.91
2022-07-27T18:00:31.975Z,100051.97
2022-07-27T18:02:59.156Z,100038.38
2022-07-27T18:05:25.899Z,100051.69
2022-07-27T18:07:53.862Z,100066.66
2022-07-27T18:10:21.044Z,100078.34
2022-07-27T18:12:47.790Z,100074.78
2022-07-27T18:15:33.606Z,100083.22
2022-07-27T18:18:00.975Z,100092.75
2022-07-27T18:20:27.847Z,100089.72
2022-07-27T18:22:54.608Z,100094.91
2022-07-27T18:25:22.027Z,100093.78
2022-07-27T18:27:50.144Z,100099.78
2022-07-27T18:30:17.660Z,100097.59
2022-07-27T18:32:45.539Z,100094.34
2022-07-27T18:35:12.882Z,100103.03
2022-07-27T18:37:39.668Z,100094.03
2022-07-27T18:40:09.078Z,100104.09
2022-07-27T18:42:36.350Z,100110.88
2022-07-27T18:45:03.513Z,100106.78
2022-07-27T18:47:30.443Z,100115.47
2022-07-27T18:49:57.142Z,100119.78
2022-07-27T18:52:23.993Z,100129.56
2022-07-27T18:54:51.044Z,100126.53
2022-07-27T18:57:19.430Z,100115.66
2022-07-27T18:59:47.971Z,100135.22
2022-07-27T19:02:17.947Z,100137.66
2022-07-27T19:04:44.783Z,100143.56
2022-07-27T19:07:13.274Z,100147.91
2022-07-27T19:09:42.862Z,100152.78
2022-07-27T19:12:10.025Z,100143.28
2022-07-27T19:14:37.100Z,100127.75
2022-07-27T19:17:04.512Z,100137.50
2022-07-27T19:19:31.537Z,100145.13
2022-07-27T19:21:58.617Z,100153.78
2022-07-27T19:24:25.754Z,100151.84
2022-07-27T19:26:52.886Z,100160.53
2022-07-27T19:29:21.286Z,100157.53
2022-07-27T19:31:48.738Z,100148.25
2022-07-27T19:34:15.467Z,100170.50
2022-07-27T19:36:42.247Z,100163.13
2022-07-27T19:39:09.309Z,100161.75
2022-07-27T19:41:36.108Z,100150.22
2022-07-27T19:44:04.719Z,100169.28
2022-07-27T19:46:31.744Z,100184.19
2022-07-27T19:48:58.785Z,100177.88
2022-07-27T19:51:25.625Z,100179.19
2022-07-27T19:53:52.671Z,100176.66
2022-07-27T19:56:19.418Z,100181.56
2022-07-27T19:58:46.457Z,100173.66
2022-07-27T20:01:13.723Z,100183.97
2022-07-27T20:03:51.997Z,100184.50
2022-07-27T20:06:21.300Z,100181.78
2022-07-27T20:08:48.598Z,100185.56
2022-07-27T20:11:15.300Z,100187.13
2022-07-27T20:13:42.151Z,100191.16
2022-07-27T20:16:09.184Z,100205.03
2022-07-27T20:18:37.561Z,100195.50
2022-07-27T20:21:04.422Z,100187.84
2022-07-27T20:23:49.432Z,100193.28
2022-07-27T20:26:16.194Z,100198.97
2022-07-27T20:28:42.852Z,100193.53
2022-07-27T20:31:09.916Z,100182.59
2022-07-27T20:33:36.971Z,100207.25
2022-07-27T20:36:05.024Z,100215.91
2022-07-27T20:38:32.034Z,100213.72
2022-07-27T20:40:59.409Z,100221.28
2022-07-27T20:43:28.917Z,100212.53
2022-07-27T20:45:56.360Z,100222.56
2022-07-27T20:48:23.251Z,100225.78
2022-07-27T20:50:49.967Z,100222.75
2022-07-27T20:53:20.256Z,100225.19
2022-07-27T20:55:48.101Z,100232.00
2022-07-27T20:58:15.056Z,100233.31
2022-07-27T21:00:42.392Z,100243.59
2022-07-27T21:03:09.185Z,100233.28
2022-07-27T21:05:35.869Z,100221.25
2022-07-27T21:08:02.856Z,100228.62
2022-07-27T21:10:29.575Z,100220.63
2022-07-27T21:12:57.011Z,100227.47
2022-07-27T21:15:34.016Z,100236.66
2022-07-27T21:18:01.768Z,100231.91
2022-07-27T21:20:29.064Z,100236.31
2022-07-27T21:23:14.951Z,100242.56
2022-07-27T21:25:43.978Z,100245.50
2022-07-27T21:28:12.343Z,100244.16
2022-07-27T21:30:44.395Z,100251.44
2022-07-27T21:33:11.209Z,100253.31
2022-07-27T21:35:37.970Z,100252.94
2022-07-27T21:38:06.135Z,100263.28
2022-07-27T21:40:32.896Z,100278.69
2022-07-27T21:43:00.735Z,100282.72
2022-07-27T21:45:27.878Z,100281.81
2022-07-27T21:47:54.602Z,100288.13
2022-07-27T21:50:21.453Z,100288.94
2022-07-27T21:52:48.444Z,100296.25
2022-07-27T21:55:22.761Z,100286.50
2022-07-27T21:57:51.141Z,100282.31
2022-07-27T22:00:23.846Z,100286.38
2022-07-27T22:02:54.962Z,100278.50
2022-07-27T22:05:22.819Z,100281.69
2022-07-27T22:07:52.493Z,100292.03
2022-07-27T22:10:19.727Z,100299.31
2022-07-27T22:12:46.573Z,100280.16
2022-07-27T22:15:13.194Z,100307.63
2022-07-27T22:17:49.927Z,100305.66
2022-07-27T22:20:19.288Z,100317.22
2022-07-27T22:22:47.185Z,100319.09
2022-07-27T22:25:14.727Z,100309.50
2022-07-27T22:27:41.510Z,100316.88
2022-07-27T22:30:09.274Z,100313.28
2022-07-27T22:32:36.170Z,100322.00
2022-07-27T22:35:03.946Z,100315.97
2022-07-27T22:37:30.907Z,100310.25
2022-07-27T22:39:57.547Z,100318.63
2022-07-27T22:42:24.297Z,100317.47
2022-07-27T22:44:51.261Z,100301.66
2022-07-27T22:47:18.303Z,100310.94
2022-07-27T22:49:45.204Z,100316.34
2022-07-27T22:52:12.413Z,100326.31
2022-07-27T22:54:39.250Z,100325.75
2022-07-27T22:57:06.719Z,100315.06
2022-07-27T22:59:34.827Z,100329.75
2022-07-27T23:02:01.771Z,100332.03
2022-07-27T23:04:28.640Z,100337.44
2022-07-27T23:06:55.915Z,100316.44
2022-07-27T23:09:23.235Z,100343.34
2022-07-27T23:11:50.694Z,100332.78
2022-07-27T23:14:18.119Z,100344.19
2022-07-27T23:16:45.229Z,100346.31
2022-07-27T23:19:11.922Z,100341.28
2022-07-27T23:21:39.699Z,100358.19
2022-07-27T23:24:10.138Z,100355.97
2022-07-27T23:26:38.031Z,100348.09
2022-07-27T23:29:05.076Z,100347.03
2022-07-27T23:31:32.023Z,100341.16
2022-07-27T23:33:58.889Z,100350.44
2022-07-27T23:36:25.886Z,100359.63
2022-07-27T23:38:52.635Z,100359.03
2022-07-27T23:41:19.665Z,100365.16
2022-07-27T23:43:46.569Z,100371.63
2022-07-27T23:46:13.490Z,100381.62
2022-07-27T23:48:40.284Z,100367.56
2022-07-27T23:51:08.881Z,100369.41
2022-07-27T23:53:35.718Z,100361.53
2022-07-27T23:56:02.461Z,100371.78
2022-07-27T23:58:29.724Z,100360.97
